Terminal Aerodrome Forecast
Issued by NWS Portland, ME

Current Version | Previous Version | Text Only | Print | Product List | Glossary On
Versions: 1 2 3 4 5 6 7 8 9 10 11 12 13 14 15 16 17 18 19 20 21 22 23 24 25 26 27
912
FTUS41 KGYX 260202 AAA
TAFPWM
TAF AMD
KPWM 260202Z 2602/2624 17009KT 1SM RA BR OVC002
     FM260400 25010KT 3SM SHRA BR SCT007 BKN012 OVC025
     FM260800 28012G19KT P6SM SCT040
     FM261200 29015G25KT P6SM SCT100=

USA.gov is the U.S. government's official web portal to all federal, state and local government web resources and services.